Time;durP1;ratioP1;P1;durP2;ratioP2;P2;SDS_P1;SDS_P2;PMS_P1;PMS_P2;Temp;Humidity;BMP_temperature;BMP_pressure;BME280_temperature;BME280_humidity;BME280_pressure;Samples;Min_cycle;Max_cycle;Signal;HPM_P1;HPM_P2
2022/03/10 00:02:13;;;;;;;20.48;12.73;;;5.80;57.70;;;;;;4934572;28;20102;-63
2022/03/10 00:04:39;;;;;;;18.80;12.45;;;5.80;57.90;;;;;;4920274;28;20039;-63
2022/03/10 00:07:05;;;;;;;17.35;11.68;;;5.70;57.90;;;;;;4884608;28;20051;-64
2022/03/10 00:09:32;;;;;;;16.95;11.43;;;5.70;58.00;;;;;;4935663;28;20051;-63
2022/03/10 00:12:04;;;;;;;18.08;11.90;;;5.70;58.10;;;;;;4921147;28;20509;-62
2022/03/10 00:14:29;;;;;;;20.98;11.93;;;5.60;58.00;;;;;;4919877;28;20051;-64
2022/03/10 00:16:58;;;;;;;18.63;11.75;;;5.70;58.10;;;;;;4919588;28;20521;-62
2022/03/10 00:19:24;;;;;;;27.35;12.50;;;5.70;58.10;;;;;;4937394;28;20039;-62
2022/03/10 00:21:50;;;;;;;18.95;12.10;;;5.70;58.10;;;;;;4935462;28;20051;-63
2022/03/10 00:24:18;;;;;;;18.75;11.95;;;5.70;58.10;;;;;;4919740;28;20051;-63
2022/03/10 00:26:45;;;;;;;17.63;12.18;;;5.70;58.30;;;;;;4950583;28;20406;-63
2022/03/10 00:29:11;;;;;;;22.35;12.20;;;5.60;58.80;;;;;;4904500;28;20187;-63
2022/03/10 00:31:37;;;;;;;26.02;12.38;;;5.60;58.40;;;;;;4935812;28;20055;-63
2022/03/10 00:34:03;;;;;;;20.73;12.05;;;5.60;58.50;;;;;;4937183;28;21852;-63
2022/03/10 00:36:29;;;;;;;21.92;11.50;;;5.50;58.50;;;;;;4952388;28;20484;-62
2022/03/10 00:38:55;;;;;;;19.98;12.38;;;5.50;58.50;;;;;;4935547;28;20493;-63
2022/03/10 00:41:21;;;;;;;20.27;11.73;;;5.50;58.80;;;;;;4937080;28;21378;-63
2022/03/10 00:43:47;;;;;;;22.10;11.90;;;5.50;58.80;;;;;;4928840;28;22102;-64
2022/03/10 00:46:13;;;;;;;20.00;12.25;;;5.50;58.80;;;;;;4935362;28;20540;-63
2022/03/10 00:48:39;;;;;;;20.42;12.85;;;5.40;58.90;;;;;;4952711;28;20494;-62
2022/03/10 00:51:06;;;;;;;22.65;12.07;;;5.40;59.00;;;;;;4936307;28;20087;-63
2022/03/10 00:53:32;;;;;;;23.08;12.10;;;5.40;59.00;;;;;;4935486;28;20051;-63
2022/03/10 00:55:58;;;;;;;18.38;11.80;;;5.40;59.20;;;;;;4938780;28;20399;-63
2022/03/10 00:58:24;;;;;;;21.85;11.95;;;5.30;59.30;;;;;;4912970;28;20055;-62
2022/03/10 01:00:51;;;;;;;19.27;11.88;;;5.20;59.40;;;;;;4919989;28;20765;-63
2022/03/10 01:03:18;;;;;;;24.85;12.23;;;5.20;59.50;;;;;;4937817;28;20047;-63
2022/03/10 01:05:44;;;;;;;23.95;13.00;;;5.20;59.70;;;;;;4936345;28;20406;-64
2022/03/10 01:08:10;;;;;;;23.05;13.18;;;5.20;60.00;;;;;;4907148;28;20047;-64
2022/03/10 01:10:36;;;;;;;17.40;12.00;;;5.10;60.00;;;;;;4914755;28;20051;-64
2022/03/10 01:13:02;;;;;;;20.58;11.98;;;5.10;60.10;;;;;;4936304;28;20054;-63
2022/03/10 01:15:29;;;;;;;21.65;13.05;;;5.00;60.10;;;;;;4935659;28;20046;-64
2022/03/10 01:17:56;;;;;;;19.83;12.68;;;5.00;60.20;;;;;;4920430;28;20177;-63
2022/03/10 01:20:24;;;;;;;17.48;12.38;;;5.00;60.40;;;;;;4934761;28;20096;-62
2022/03/10 01:22:50;;;;;;;23.08;12.85;;;4.90;60.30;;;;;;4936716;28;20711;-62
2022/03/10 01:25:18;;;;;;;17.70;12.35;;;4.90;60.40;;;;;;4952667;28;20067;-63
2022/03/10 01:27:44;;;;;;;19.90;12.77;;;4.90;60.70;;;;;;4936304;28;20055;-63
2022/03/10 01:30:10;;;;;;;21.17;12.02;;;4.90;60.80;;;;;;4933379;28;20557;-63
2022/03/10 01:32:37;;;;;;;19.60;11.90;;;4.80;60.70;;;;;;4933830;28;20425;-63
2022/03/10 01:35:04;;;;;;;18.70;12.57;;;4.80;60.80;;;;;;4950770;28;20043;-63
2022/03/10 01:37:30;;;;;;;19.60;12.10;;;4.80;60.90;;;;;;4936838;28;20122;-63
2022/03/10 01:39:56;;;;;;;20.27;12.02;;;4.80;60.80;;;;;;4916333;28;20055;-63
2022/03/10 01:42:25;;;;;;;20.35;13.05;;;4.80;61.30;;;;;;4936207;28;20634;-63
2022/03/10 01:44:55;;;;;;;18.23;12.27;;;4.70;60.90;;;;;;4936789;28;20058;-63
2022/03/10 01:47:21;;;;;;;20.85;13.07;;;4.70;60.90;;;;;;4949568;28;20093;-63
2022/03/10 01:49:47;;;;;;;21.02;12.70;;;4.70;60.90;;;;;;4931705;28;20161;-63
2022/03/10 01:52:15;;;;;;;19.10;12.70;;;4.60;61.10;;;;;;4934469;28;20076;-63
2022/03/10 01:54:42;;;;;;;20.20;12.30;;;4.60;61.20;;;;;;4933682;28;20051;-63
2022/03/10 01:57:10;;;;;;;21.77;13.13;;;4.60;61.30;;;;;;4933955;28;20051;-64
2022/03/10 01:59:38;;;;;;;19.48;12.40;;;4.60;61.50;;;;;;4945266;28;20031;-63
2022/03/10 02:02:05;;;;;;;19.00;12.10;;;4.50;61.60;;;;;;4917945;28;20055;-63
2022/03/10 02:04:32;;;;;;;17.95;12.55;;;4.50;61.70;;;;;;4920503;28;20054;-64
2022/03/10 02:06:58;;;;;;;23.63;13.60;;;4.50;61.90;;;;;;4934847;28;20070;-63
2022/03/10 02:12:09;;;;;;;20.23;13.85;;;4.30;62.20;;;;;;4933572;28;20074;-63
2022/03/10 02:17:22;;;;;;;18.67;12.52;;;4.20;62.40;;;;;;4919953;28;20474;-63
2022/03/10 02:19:56;;;;;;;18.98;12.52;;;4.20;62.80;;;;;;4933824;28;20043;-62
2022/03/10 02:22:23;;;;;;;22.15;13.50;;;4.10;62.90;;;;;;4933183;28;20079;-62
2022/03/10 02:24:51;;;;;;;21.67;12.98;;;4.10;63.10;;;;;;4935640;28;20047;-62
2022/03/10 02:27:23;;;;;;;20.35;13.63;;;4.10;63.10;;;;;;4919279;28;20047;-64
2022/03/10 02:30:00;;;;;;;23.67;12.77;;;4.00;63.50;;;;;;4936231;28;20516;-63
2022/03/10 02:32:26;;;;;;;20.27;12.77;;;3.90;63.40;;;;;;4933595;28;20133;-62
2022/03/10 02:34:53;;;;;;;22.73;13.10;;;3.90;63.60;;;;;;4934976;28;20094;-63
2022/03/10 02:37:19;;;;;;;19.65;13.38;;;3.90;63.80;;;;;;4915802;28;20090;-62
2022/03/10 02:39:46;;;;;;;20.48;13.13;;;3.80;63.80;;;;;;4934614;28;20087;-63
2022/03/10 02:42:13;;;;;;;23.65;12.38;;;3.80;63.80;;;;;;4935547;28;20058;-62
2022/03/10 02:44:57;;;;;;;21.00;13.27;;;3.80;64.10;;;;;;4935044;28;20093;-63
2022/03/10 02:47:23;;;;;;;19.27;12.98;;;3.80;64.40;;;;;;4936284;28;20046;-64
2022/03/10 02:49:49;;;;;;;30.83;13.07;;;3.70;64.20;;;;;;4933286;28;20473;-62
2022/03/10 02:52:14;;;;;;;21.90;13.27;;;3.70;64.30;;;;;;4946155;28;20140;-62
2022/03/10 02:54:41;;;;;;;21.30;12.85;;;3.70;64.30;;;;;;4920033;28;20058;-63
2022/03/10 02:57:08;;;;;;;22.20;12.90;;;3.60;64.60;;;;;;4912496;28;20043;-64
2022/03/10 02:59:34;;;;;;;21.17;13.18;;;3.60;64.60;;;;;;4935588;28;20134;-62
2022/03/10 03:01:59;;;;;;;22.55;13.48;;;3.60;64.70;;;;;;4901889;28;20057;-64
2022/03/10 03:04:26;;;;;;;21.75;13.55;;;3.60;64.80;;;;;;4921598;28;20039;-62
2022/03/10 03:06:52;;;;;;;22.63;12.75;;;3.60;64.80;;;;;;4935510;28;20118;-63
2022/03/10 03:09:17;;;;;;;21.83;13.18;;;3.60;65.10;;;;;;4935732;28;20044;-63
2022/03/10 03:11:43;;;;;;;25.48;13.00;;;3.60;64.80;;;;;;4926706;28;20137;-63
2022/03/10 03:14:09;;;;;;;20.98;12.75;;;3.60;64.80;;;;;;4936557;28;20126;-63
2022/03/10 03:16:35;;;;;;;20.70;13.05;;;3.60;64.70;;;;;;4934612;28;20098;-63
2022/03/10 03:19:01;;;;;;;22.73;13.50;;;3.50;64.70;;;;;;4920254;28;20101;-63
2022/03/10 03:21:27;;;;;;;21.20;12.70;;;3.50;64.80;;;;;;4949880;28;20050;-63
2022/03/10 03:23:52;;;;;;;22.08;14.00;;;3.50;64.90;;;;;;4916971;28;20486;-63
2022/03/10 03:26:18;;;;;;;21.20;13.23;;;3.50;64.80;;;;;;4919958;28;20043;-62
2022/03/10 03:28:44;;;;;;;21.60;13.70;;;3.50;64.80;;;;;;4935776;28;20513;-62
2022/03/10 03:31:11;;;;;;;21.73;13.23;;;3.50;64.70;;;;;;4933008;28;21015;-62
2022/03/10 03:33:38;;;;;;;21.45;12.82;;;3.50;64.80;;;;;;4935308;28;20051;-63
2022/03/10 03:36:05;;;;;;;22.13;13.07;;;3.40;64.80;;;;;;4911030;28;20074;-64
2022/03/10 03:38:31;;;;;;;21.45;12.73;;;3.50;64.70;;;;;;4936918;28;20067;-63
2022/03/10 03:40:57;;;;;;;19.75;12.85;;;3.50;64.60;;;;;;4948875;28;20063;-62
2022/03/10 03:43:23;;;;;;;23.55;14.25;;;3.50;64.60;;;;;;4919867;28;20177;-63
2022/03/10 03:45:49;;;;;;;21.02;12.88;;;3.50;64.50;;;;;;4934806;28;20181;-62
2022/03/10 03:48:15;;;;;;;20.67;13.82;;;3.50;64.40;;;;;;4934256;28;20047;-63
2022/03/10 03:50:41;;;;;;;23.17;13.35;;;3.50;64.40;;;;;;4886854;28;20051;-63
2022/03/10 03:53:07;;;;;;;20.55;13.50;;;3.50;64.60;;;;;;4934215;28;20043;-64
2022/03/10 03:55:33;;;;;;;20.80;13.38;;;3.50;64.30;;;;;;4908258;28;20052;-63
2022/03/10 03:57:58;;;;;;;21.48;14.23;;;3.50;64.50;;;;;;4951632;28;20485;-63
2022/03/10 04:00:24;;;;;;;21.98;13.98;;;3.50;64.40;;;;;;4934592;28;20161;-63
2022/03/10 04:02:50;;;;;;;20.27;13.63;;;3.50;64.50;;;;;;4915931;28;20063;-63
2022/03/10 04:05:16;;;;;;;24.48;13.82;;;3.40;64.60;;;;;;4921559;28;20051;-62
2022/03/10 04:07:42;;;;;;;20.77;13.40;;;3.50;64.60;;;;;;4932404;28;20101;-63
2022/03/10 04:10:09;;;;;;;24.33;14.60;;;3.40;64.70;;;;;;4934746;28;20129;-63
2022/03/10 04:12:35;;;;;;;22.73;13.93;;;3.40;64.80;;;;;;4935466;28;20575;-64
2022/03/10 04:15:01;;;;;;;21.42;13.80;;;3.40;64.80;;;;;;4933129;28;20043;-64
2022/03/10 04:17:27;;;;;;;23.65;14.20;;;3.30;64.90;;;;;;4935353;28;20054;-63
2022/03/10 04:19:53;;;;;;;20.38;13.55;;;3.30;64.90;;;;;;4925624;28;20111;-62
2022/03/10 04:22:19;;;;;;;22.75;13.68;;;3.30;65.00;;;;;;4908928;28;20134;-63
2022/03/10 04:24:45;;;;;;;22.23;13.10;;;3.30;65.10;;;;;;4934543;28;20402;-63
2022/03/10 04:27:11;;;;;;;19.75;13.00;;;3.30;65.70;;;;;;4911051;28;20137;-63
2022/03/10 04:29:37;;;;;;;22.50;12.90;;;3.30;65.10;;;;;;4933545;28;20071;-63
2022/03/10 04:32:03;;;;;;;22.48;13.48;;;3.20;65.10;;;;;;4917521;28;20043;-64
2022/03/10 04:34:29;;;;;;;22.33;13.40;;;3.20;65.10;;;;;;4936337;28;21465;-63
2022/03/10 04:36:55;;;;;;;20.40;12.25;;;3.20;65.10;;;;;;4935429;28;20046;-63
2022/03/10 04:39:22;;;;;;;19.25;12.52;;;3.20;65.00;;;;;;4936399;28;20071;-63
2022/03/10 04:41:48;;;;;;;23.95;12.73;;;3.20;64.90;;;;;;4917067;28;20501;-63
2022/03/10 04:44:14;;;;;;;18.75;12.73;;;3.20;64.80;;;;;;4923977;28;20059;-63
2022/03/10 04:46:40;;;;;;;21.20;12.30;;;3.20;64.70;;;;;;4933008;28;20085;-64
2022/03/10 04:49:06;;;;;;;20.30;12.85;;;3.20;64.60;;;;;;4907811;28;20468;-63
2022/03/10 04:51:32;;;;;;;23.73;12.60;;;3.20;64.50;;;;;;4917986;28;20054;-63
2022/03/10 04:53:58;;;;;;;19.35;12.70;;;3.20;64.40;;;;;;4950183;28;20039;-64
2022/03/10 04:56:23;;;;;;;21.45;12.52;;;3.20;64.40;;;;;;4936213;28;20078;-63
2022/03/10 04:58:49;;;;;;;21.27;12.38;;;3.20;64.30;;;;;;4958720;28;20059;-63
2022/03/10 05:01:15;;;;;;;23.48;12.77;;;3.30;64.20;;;;;;4919362;28;22481;-62
2022/03/10 05:03:41;;;;;;;20.23;12.07;;;3.30;64.10;;;;;;4929559;28;20101;-63
2022/03/10 05:06:07;;;;;;;20.20;12.07;;;3.30;64.10;;;;;;4920562;28;20078;-63
2022/03/10 05:08:33;;;;;;;23.63;12.15;;;3.30;64.00;;;;;;4937184;28;20050;-63
2022/03/10 05:10:59;;;;;;;23.42;12.98;;;3.30;64.00;;;;;;4904246;28;20053;-63
2022/03/10 05:13:25;;;;;;;24.73;13.70;;;3.30;64.00;;;;;;4938957;28;20185;-62
2022/03/10 05:15:51;;;;;;;21.30;12.23;;;3.30;64.00;;;;;;4938094;28;20074;-64
2022/03/10 05:18:17;;;;;;;17.27;12.00;;;3.30;64.00;;;;;;4920762;28;20047;-64
2022/03/10 05:20:42;;;;;;;19.60;12.77;;;3.30;64.00;;;;;;4919999;28;20055;-62
2022/03/10 05:23:08;;;;;;;19.02;12.23;;;3.30;63.90;;;;;;4938251;28;20086;-63
2022/03/10 05:25:39;;;;;;;22.77;13.07;;;3.30;64.00;;;;;;4943729;28;20079;-63
2022/03/10 05:28:15;;;;;;;21.60;12.73;;;3.30;64.00;;;;;;4952753;28;20139;-63
2022/03/10 05:30:45;;;;;;;21.13;12.98;;;3.30;64.00;;;;;;4934583;28;20047;-63
2022/03/10 05:33:12;;;;;;;21.50;12.00;;;3.10;64.00;;;;;;4920318;28;20057;-63
2022/03/10 05:35:38;;;;;;;19.88;12.57;;;3.30;64.20;;;;;;4936320;28;20044;-63
2022/03/10 05:38:04;;;;;;;22.23;13.23;;;3.20;64.10;;;;;;4938652;28;20055;-64
2022/03/10 05:40:30;;;;;;;19.48;12.95;;;3.30;64.20;;;;;;4917669;28;20043;-64
2022/03/10 05:42:56;;;;;;;22.27;13.23;;;3.20;64.20;;;;;;4922022;28;20065;-63
2022/03/10 05:45:23;;;;;;;24.00;13.48;;;3.30;64.20;;;;;;4920869;28;20051;-64
2022/03/10 05:47:51;;;;;;;22.98;12.73;;;3.30;64.30;;;;;;4936740;28;20486;-64
2022/03/10 05:50:18;;;;;;;20.40;13.20;;;3.20;64.30;;;;;;4939340;28;20786;-63
2022/03/10 05:52:45;;;;;;;22.00;12.50;;;3.20;64.30;;;;;;4936646;28;20082;-64
2022/03/10 05:55:13;;;;;;;21.55;13.18;;;3.20;64.30;;;;;;4936648;28;20617;-63
2022/03/10 05:57:39;;;;;;;20.10;12.88;;;3.20;64.30;;;;;;4922232;28;20061;-64
2022/03/10 06:00:06;;;;;;;23.23;13.98;;;3.20;64.30;;;;;;4937119;28;20914;-62
2022/03/10 06:02:31;;;;;;;18.42;12.50;;;3.30;64.40;;;;;;4937241;28;20082;-63
2022/03/10 06:05:01;;;;;;;22.48;13.25;;;3.20;64.40;;;;;;4947380;28;20139;-63
2022/03/10 06:07:28;;;;;;;27.13;14.70;;;3.20;64.40;;;;;;4919857;28;20059;-63
2022/03/10 06:09:55;;;;;;;23.95;13.13;;;3.20;64.50;;;;;;4933401;28;20047;-63
2022/03/10 06:12:21;;;;;;;20.70;12.88;;;3.20;64.60;;;;;;4919745;28;20051;-63
2022/03/10 06:14:47;;;;;;;23.85;13.10;;;3.30;64.70;;;;;;4932295;28;20060;-63
2022/03/10 06:17:13;;;;;;;23.15;13.18;;;3.20;64.60;;;;;;4936706;28;20363;-63
2022/03/10 06:19:39;;;;;;;24.80;12.73;;;3.20;64.50;;;;;;4928613;28;20424;-63
2022/03/10 06:22:05;;;;;;;22.08;13.05;;;3.30;64.50;;;;;;4922101;28;20051;-64
2022/03/10 06:24:31;;;;;;;25.65;14.02;;;3.30;64.60;;;;;;4937213;28;20078;-64
2022/03/10 06:26:56;;;;;;;24.50;12.68;;;3.30;64.50;;;;;;4906639;28;20046;-64
2022/03/10 06:29:22;;;;;;;26.85;13.85;;;3.30;64.40;;;;;;4934502;28;20145;-64
2022/03/10 06:31:51;;;;;;;24.92;13.27;;;3.30;64.30;;;;;;4928470;28;20043;-63
2022/03/10 06:34:17;;;;;;;22.20;13.23;;;3.40;64.30;;;;;;4919297;28;20043;-63
2022/03/10 06:36:46;;;;;;;21.52;13.82;;;3.40;64.20;;;;;;4927587;28;20047;-63
2022/03/10 06:39:12;;;;;;;25.95;15.10;;;3.40;64.20;;;;;;4925223;28;20141;-64
2022/03/10 06:41:39;;;;;;;20.27;13.38;;;3.50;64.30;;;;;;4902083;28;20071;-63
2022/03/10 06:44:08;;;;;;;23.58;13.70;;;3.40;64.20;;;;;;4936722;28;20051;-63
2022/03/10 06:46:33;;;;;;;23.48;14.05;;;3.40;64.30;;;;;;4916921;28;20079;-63
2022/03/10 06:48:59;;;;;;;27.67;13.45;;;3.50;64.40;;;;;;4915251;28;20562;-64
2022/03/10 06:51:25;;;;;;;21.73;13.88;;;3.50;64.40;;;;;;4917672;28;20565;-63
2022/03/10 06:53:51;;;;;;;22.00;13.98;;;3.50;64.60;;;;;;4933615;28;20494;-63
2022/03/10 06:56:17;;;;;;;23.83;14.07;;;3.50;64.60;;;;;;4919369;28;20071;-63
2022/03/10 06:58:43;;;;;;;23.55;14.07;;;3.50;64.60;;;;;;4933926;28;20102;-63
2022/03/10 07:01:09;;;;;;;24.20;13.82;;;3.50;64.60;;;;;;4932339;28;20200;-64
2022/03/10 07:03:35;;;;;;;21.90;13.75;;;3.50;64.70;;;;;;4917078;28;20058;-63
2022/03/10 07:06:01;;;;;;;21.27;13.13;;;3.50;64.70;;;;;;4950160;28;20047;-64
2022/03/10 07:08:27;;;;;;;22.30;13.43;;;3.60;64.80;;;;;;4913618;28;20055;-63
2022/03/10 07:10:53;;;;;;;21.50;13.43;;;3.50;64.70;;;;;;4932065;28;20410;-64
2022/03/10 07:13:19;;;;;;;24.52;13.90;;;3.60;64.70;;;;;;4917590;28;20051;-64
2022/03/10 07:15:45;;;;;;;23.15;14.35;;;3.60;64.90;;;;;;4899116;28;20050;-61
2022/03/10 07:18:11;;;;;;;22.92;13.20;;;3.60;64.90;;;;;;4937528;28;20039;-60
2022/03/10 07:20:37;;;;;;;23.90;13.90;;;3.70;64.90;;;;;;4921098;28;20051;-60
2022/03/10 07:23:03;;;;;;;28.02;13.27;;;3.70;64.90;;;;;;4936746;28;20126;-61
2022/03/10 07:25:29;;;;;;;23.80;13.68;;;3.70;64.90;;;;;;4952477;28;20478;-61
2022/03/10 07:27:55;;;;;;;24.75;13.82;;;3.80;65.00;;;;;;4937503;28;20047;-61
2022/03/10 07:30:20;;;;;;;23.48;13.73;;;3.80;64.80;;;;;;4937165;28;20039;-61
2022/03/10 07:32:46;;;;;;;24.35;13.55;;;3.90;64.70;;;;;;4936836;28;20054;-60
2022/03/10 07:35:12;;;;;;;24.40;13.65;;;4.00;64.60;;;;;;4934742;28;20094;-62
2022/03/10 07:37:38;;;;;;;24.08;14.27;;;4.00;64.50;;;;;;4937672;28;20043;-60
2022/03/10 07:40:04;;;;;;;24.15;13.57;;;4.10;64.40;;;;;;4933876;28;20538;-60
2022/03/10 07:42:30;;;;;;;23.48;13.75;;;4.10;64.30;;;;;;4938972;28;20119;-60
2022/03/10 07:44:56;;;;;;;24.38;14.20;;;4.20;64.20;;;;;;4950965;28;20059;-61
2022/03/10 07:47:22;;;;;;;21.50;14.00;;;4.20;64.30;;;;;;4928680;28;20047;-60
2022/03/10 07:49:48;;;;;;;25.98;13.35;;;4.30;64.30;;;;;;4938332;28;20037;-60
2022/03/10 07:52:14;;;;;;;21.55;12.77;;;4.40;64.20;;;;;;4937094;28;20051;-61
2022/03/10 07:54:39;;;;;;;20.65;13.20;;;4.40;64.10;;;;;;4937082;28;20491;-59
2022/03/10 07:57:05;;;;;;;21.77;13.90;;;4.40;64.10;;;;;;4935159;28;20047;-60
2022/03/10 07:59:31;;;;;;;23.38;13.30;;;4.50;64.00;;;;;;4952589;28;20066;-60
2022/03/10 08:01:57;;;;;;;23.50;13.77;;;4.50;64.00;;;;;;4936502;28;20055;-61
2022/03/10 08:04:23;;;;;;;23.48;13.55;;;4.60;64.00;;;;;;4936089;28;20054;-61
2022/03/10 08:06:50;;;;;;;22.33;13.93;;;4.70;64.00;;;;;;4930736;28;21708;-62
2022/03/10 08:09:16;;;;;;;23.02;13.93;;;4.70;64.00;;;;;;4921496;28;20770;-61
2022/03/10 08:11:42;;;;;;;23.48;13.75;;;4.80;64.00;;;;;;4945982;28;20110;-61
2022/03/10 08:14:07;;;;;;;22.83;14.32;;;4.80;64.00;;;;;;4933600;28;20485;-61
2022/03/10 08:16:34;;;;;;;28.67;12.98;;;4.90;64.00;;;;;;4936058;28;20482;-61
2022/03/10 08:19:00;;;;;;;22.70;13.32;;;4.90;64.00;;;;;;4944194;28;20050;-60
2022/03/10 08:21:26;;;;;;;26.45;13.73;;;5.00;64.00;;;;;;4936931;28;20136;-61
2022/03/10 08:23:53;;;;;;;23.20;14.18;;;5.10;64.00;;;;;;4937431;28;20047;-60
2022/03/10 08:26:19;;;;;;;23.27;13.88;;;5.30;64.30;;;;;;4936737;28;20059;-61
2022/03/10 08:28:50;;;;;;;21.65;13.80;;;5.40;63.80;;;;;;4937986;28;20087;-59
2022/03/10 08:31:18;;;;;;;23.77;14.02;;;5.60;63.80;;;;;;4926676;28;20059;-61
2022/03/10 08:33:43;;;;;;;23.60;12.65;;;5.70;63.70;;;;;;4940953;28;20054;-61
2022/03/10 08:36:10;;;;;;;20.05;13.45;;;5.90;63.40;;;;;;4923107;28;20051;-61
2022/03/10 08:38:36;;;;;;;23.02;13.45;;;6.00;63.10;;;;;;4936781;28;20051;-60
2022/03/10 08:41:02;;;;;;;26.48;13.80;;;6.20;62.80;;;;;;4939804;28;20725;-60
2022/03/10 08:43:29;;;;;;;25.25;13.57;;;6.30;62.40;;;;;;4940378;28;20047;-61
2022/03/10 08:46:01;;;;;;;24.65;13.10;;;6.40;62.10;;;;;;4940362;28;20516;-60
2022/03/10 08:48:27;;;;;;;21.15;13.65;;;6.70;61.80;;;;;;4925672;28;20047;-60
2022/03/10 08:50:53;;;;;;;21.73;13.85;;;6.80;61.50;;;;;;4939511;28;20043;-61
2022/03/10 08:53:19;;;;;;;20.48;13.70;;;6.90;61.40;;;;;;4907728;28;20047;-60
2022/03/10 08:55:45;;;;;;;26.45;14.88;;;7.00;61.10;;;;;;4940050;28;20048;-61
2022/03/10 08:58:10;;;;;;;22.45;14.13;;;7.20;60.90;;;;;;4941243;28;20067;-60
2022/03/10 09:00:37;;;;;;;22.60;14.05;;;7.30;60.90;;;;;;4939290;28;20051;-61
2022/03/10 09:03:03;;;;;;;21.63;14.18;;;7.50;60.60;;;;;;4939712;28;20054;-60
2022/03/10 09:05:29;;;;;;;20.20;14.18;;;7.60;60.40;;;;;;4939644;28;20144;-60
2022/03/10 09:07:55;;;;;;;23.83;13.57;;;7.80;60.40;;;;;;4939715;28;20047;-59
2022/03/10 09:10:21;;;;;;;23.27;13.70;;;7.90;60.40;;;;;;4939714;28;20051;-60
2022/03/10 09:12:46;;;;;;;30.00;14.00;;;8.10;60.10;;;;;;4938987;28;20062;-60
2022/03/10 09:15:12;;;;;;;24.08;13.82;;;8.20;59.60;;;;;;4938837;28;20694;-59
2022/03/10 09:17:38;;;;;;;21.23;13.93;;;8.40;59.20;;;;;;4937816;28;20050;-61
2022/03/10 09:20:05;;;;;;;22.85;14.43;;;8.50;58.70;;;;;;4940266;28;20090;-61
2022/03/10 09:22:31;;;;;;;21.42;13.73;;;8.60;58.70;;;;;;4941285;28;20055;-61
2022/03/10 09:24:57;;;;;;;24.77;14.02;;;8.70;58.50;;;;;;4931493;28;20053;-61
2022/03/10 09:27:23;;;;;;;21.70;13.80;;;8.90;58.60;;;;;;4940050;28;20489;-61
2022/03/10 09:29:49;;;;;;;22.60;14.18;;;9.00;58.30;;;;;;4938535;28;20077;-61
2022/03/10 09:32:15;;;;;;;23.02;14.15;;;9.20;58.30;;;;;;4936971;28;20098;-60
2022/03/10 09:34:41;;;;;;;20.60;14.00;;;9.30;58.00;;;;;;4940152;28;20043;-61
2022/03/10 09:37:07;;;;;;;22.52;13.80;;;9.50;58.00;;;;;;4940131;28;20130;-62
2022/03/10 09:39:33;;;;;;;22.27;15.27;;;9.60;57.70;;;;;;4913037;28;20059;-61
2022/03/10 09:42:03;;;;;;;23.08;13.98;;;9.70;57.30;;;;;;4935481;28;20047;-60
2022/03/10 09:44:32;;;;;;;21.00;13.98;;;9.90;57.30;;;;;;4939635;28;20047;-61
2022/03/10 09:47:03;;;;;;;24.17;14.50;;;10.00;57.30;;;;;;4936539;28;20133;-61
2022/03/10 09:49:36;;;;;;;24.42;13.82;;;10.10;57.10;;;;;;4937541;28;20055;-62
2022/03/10 09:52:02;;;;;;;20.58;14.05;;;10.20;56.40;;;;;;4940034;28;20130;-62
2022/03/10 09:54:29;;;;;;;24.13;14.18;;;10.30;56.30;;;;;;4932304;28;20043;-62
2022/03/10 09:56:56;;;;;;;21.40;14.57;;;10.40;56.10;;;;;;4905317;28;20572;-61
2022/03/10 09:59:22;;;;;;;23.33;14.20;;;10.50;55.90;;;;;;4938911;28;20205;-62
2022/03/10 10:01:48;;;;;;;21.15;13.95;;;10.60;55.80;;;;;;4937334;28;20050;-61
2022/03/10 10:04:14;;;;;;;20.05;13.98;;;10.70;55.70;;;;;;4939299;28;20047;-62
2022/03/10 10:07:21;;;;;;;19.98;14.07;;;10.90;55.70;;;;;;4938188;28;20138;-61
2022/03/10 10:09:56;;;;;;;21.55;14.13;;;11.10;56.00;;;;;;4846457;29;20041;-62
2022/03/10 10:12:30;;;;;;;19.73;14.13;;;11.20;55.30;;;;;;4859922;29;20055;-62
2022/03/10 10:14:58;;;;;;;21.77;13.95;;;11.30;55.20;;;;;;4909330;28;20058;-61
2022/03/10 10:17:29;;;;;;;26.13;13.77;;;11.50;55.30;;;;;;4938979;28;20097;-61
2022/03/10 10:19:57;;;;;;;19.48;13.50;;;11.60;55.20;;;;;;4939054;28;20397;-61
2022/03/10 10:22:24;;;;;;;20.17;14.32;;;11.70;54.80;;;;;;4937531;28;20062;-61
2022/03/10 10:24:52;;;;;;;24.55;13.82;;;11.80;54.50;;;;;;4936812;28;20050;-60
2022/03/10 10:27:24;;;;;;;24.45;14.48;;;12.00;54.20;;;;;;4939939;28;20054;-62
2022/03/10 10:29:55;;;;;;;19.90;14.07;;;12.10;54.30;;;;;;4939503;28;20412;-61
2022/03/10 10:32:31;;;;;;;29.65;14.77;;;12.20;54.00;;;;;;4933819;28;20132;-61
2022/03/10 10:35:20;;;;;;;20.80;13.70;;;12.30;54.00;;;;;;4935647;28;20053;-61
2022/03/10 10:37:50;;;;;;;22.35;14.15;;;12.50;54.30;;;;;;4936574;28;20125;-62
2022/03/10 10:40:22;;;;;;;24.77;14.55;;;12.60;54.10;;;;;;4937979;28;20043;-60
2022/03/10 10:42:49;;;;;;;24.63;14.57;;;12.70;54.00;;;;;;4921614;28;20047;-61
2022/03/10 10:45:30;;;;;;;23.92;14.95;;;12.90;54.00;;;;;;4937788;28;20057;-62
2022/03/10 10:48:04;;;;;;;19.95;14.00;;;13.00;53.60;;;;;;4935986;28;20130;-61
2022/03/10 10:50:34;;;;;;;19.92;14.48;;;13.10;54.10;;;;;;4936010;28;20505;-62
2022/03/10 10:53:01;;;;;;;25.08;14.23;;;13.30;53.90;;;;;;4924515;28;20047;-62
2022/03/10 10:55:36;;;;;;;19.15;13.82;;;13.40;54.10;;;;;;4937578;28;20054;-61
2022/03/10 10:58:09;;;;;;;25.17;15.10;;;13.60;53.90;;;;;;4938248;28;20051;-60
2022/03/10 11:00:47;;;;;;;20.55;14.50;;;13.80;53.10;;;;;;4936460;28;20499;-61
2022/03/10 11:03:32;;;;;;;25.40;14.60;;;13.90;52.70;;;;;;4936696;28;20078;-61
2022/03/10 11:05:58;;;;;;;22.92;15.10;;;14.00;52.50;;;;;;4934440;28;20138;-60
2022/03/10 11:08:26;;;;;;;19.88;14.55;;;14.10;52.60;;;;;;4913812;28;20125;-61
2022/03/10 11:10:52;;;;;;;20.48;14.20;;;14.20;52.60;;;;;;4918715;28;20565;-62
2022/03/10 11:13:19;;;;;;;23.58;14.95;;;14.40;52.80;;;;;;4936990;28;20066;-61
2022/03/10 11:15:46;;;;;;;20.38;14.40;;;14.60;52.70;;;;;;4951487;28;20062;-61
2022/03/10 11:18:14;;;;;;;21.63;15.40;;;14.70;51.80;;;;;;4934220;28;20042;-61
2022/03/10 11:20:44;;;;;;;22.80;13.90;;;14.80;51.20;;;;;;4934930;28;20047;-62
2022/03/10 11:23:40;;;;;;;20.05;14.30;;;14.80;50.50;;;;;;4937066;28;20521;-62
2022/03/10 11:26:09;;;;;;;20.52;15.38;;;14.90;50.00;;;;;;4951574;28;20589;-62
2022/03/10 11:28:43;;;;;;;22.00;14.60;;;15.00;50.30;;;;;;4936881;28;20043;-61
2022/03/10 11:31:11;;;;;;;22.65;14.18;;;15.10;50.10;;;;;;4936557;28;20103;-62
2022/03/10 11:33:38;;;;;;;24.98;15.82;;;15.30;50.40;;;;;;4936936;28;20067;-61
2022/03/10 11:36:20;;;;;;;23.45;15.23;;;15.50;49.80;;;;;;4918034;28;20066;-62
2022/03/10 11:39:05;;;;;;;23.92;13.98;;;15.60;50.20;;;;;;4938736;28;20059;-61
2022/03/10 11:41:50;;;;;;;21.75;15.13;;;15.80;49.50;;;;;;4937477;28;20043;-61
2022/03/10 11:44:20;;;;;;;22.27;14.20;;;15.90;49.70;;;;;;4936898;28;20055;-61
2022/03/10 11:46:59;;;;;;;25.95;14.95;;;16.10;49.80;;;;;;4937587;28;20276;-63
2022/03/10 11:49:41;;;;;;;21.33;14.35;;;16.30;49.00;;;;;;4936729;28;20123;-61
2022/03/10 11:52:24;;;;;;;19.13;13.63;;;16.30;48.60;;;;;;4937168;28;20421;-60
2022/03/10 11:55:05;;;;;;;;;;;16.40;48.80;;;;;;4937005;28;20050;-61
2022/03/10 11:57:42;;;;;;;22.20;15.15;;;16.50;48.50;;;;;;4934296;28;20158;-61
2022/03/10 12:00:08;;;;;;;20.35;14.80;;;16.60;48.40;;;;;;4937065;28;20602;-63
2022/03/10 12:02:41;;;;;;;21.25;15.05;;;16.80;48.20;;;;;;4936938;28;20047;-63
2022/03/10 12:05:08;;;;;;;21.83;14.43;;;16.90;47.10;;;;;;4939380;28;20557;-62
2022/03/10 12:07:35;;;;;;;20.35;14.95;;;17.00;47.60;;;;;;4941156;28;20086;-61
2022/03/10 12:10:08;;;;;;;22.55;15.38;;;17.10;47.20;;;;;;4942309;28;20133;-61
2022/03/10 12:12:38;;;;;;;;;;;17.30;46.70;;;;;;4941159;28;20383;-62
2022/03/10 12:15:29;;;;;;;22.80;15.02;;;17.40;47.70;;;;;;4915922;28;20014;-61
2022/03/10 12:17:56;;;;;;;20.85;15.20;;;17.60;47.60;;;;;;4941013;28;20039;-63
2022/03/10 12:20:36;;;;;;;24.63;15.50;;;17.70;46.80;;;;;;4940762;28;20656;-61
2022/03/10 12:23:15;;;;;;;25.25;15.63;;;17.80;45.50;;;;;;4942239;28;20047;-65
2022/03/10 12:25:49;;;;;;;24.65;15.00;;;17.80;45.20;;;;;;4935239;28;20051;-61
2022/03/10 12:28:31;;;;;;;24.17;15.10;;;17.90;45.40;;;;;;4919878;28;20058;-63
2022/03/10 12:31:11;;;;;;;19.23;14.70;;;17.90;44.60;;;;;;4937674;28;20043;-61
2022/03/10 12:33:47;;;;;;;22.17;14.68;;;17.90;44.30;;;;;;4940931;28;20065;-62
2022/03/10 12:36:26;;;;;;;22.30;15.45;;;17.90;44.80;;;;;;4950437;28;20047;-63
2022/03/10 12:38:52;;;;;;;22.40;14.77;;;18.00;43.60;;;;;;4941856;28;20762;-61
2022/03/10 12:41:18;;;;;;;20.58;15.07;;;18.00;44.00;;;;;;4923629;28;20039;-62
2022/03/10 12:43:51;;;;;;;22.67;15.60;;;18.10;44.60;;;;;;4941316;28;20482;-61
2022/03/10 12:46:17;;;;;;;19.80;14.35;;;18.30;44.50;;;;;;4946741;28;20043;-63